Terminal Aerodrome Forecast
Issued by NWS

Home | Current Version | Previous Version | Text Only | Print | Product List | Glossary On
Versions: 1 2 3 4 5 6 7 8 9 10 11 12 13
000
FTUS42 KFFC 051737
TAFPDK
TAF
KPDK 051737Z 0518/0618 10006KT P6SM FEW050
     FM051900 11008KT P6SM FEW050 BKN080
     FM060000 13002KT P6SM FEW090
     FM061500 08010KT P6SM SKC=

USA.gov is the U.S. government's official web portal to all federal, state and local government web resources and services.